MUCU/SCU METAR and TAF weather

Enter ICAO airport designator
Station Type Date Time Source
MUCU METAR 2022/12/06 05:50 UTC NOAA

MUCU 060550Z 02004KT 350V060 9000 FEW020 22/19 Q1015


Station Type Date Time Source
MUCU Decoded METAR 2022/12/06 05:50 UTC NOAA

Santiago De Cuba, Oriente, Cuba (MUCU) 19-58N 075-51W 55M
Dec 06, 2022 - 12:50 AM EST / 2022.12.06 0550 UTC
Wind: from the NNE (020 degrees) at 5 MPH (4 KT) (direction variable):0
Visibility: 5 mile(s):0
Sky conditions: mostly clear
Temperature: 71 F (22 C)
Dew Point: 66 F (19 C)
Relative Humidity: 83%
Pressure (altimeter): 29.97 in. Hg (1015 hPa)
ob: MUCU 060550Z 02004KT 350V060 9000 FEW020 22/19 Q1015
cycle: 6

Station Type Date Time Source
MUCU TAF 2022/12/06 06:03 UTC NOAA

TAF MUCU 060500Z 0606/0706 36006KT 9000 FEW025
BECMG 0614/0617 VRB05KT SCT020
BECMG 0701/0703 36005KT FEW025

Example: see airport list